sensor_id;sensor_type;location;lat;lon;timestamp;pressure;altitude;pressure_sealevel;temperature;humidity
24486;BME280;13449;49.374;8.584;2022-07-10T00:02:12;101239.03;;;16.77;85.95
24486;BME280;13449;49.374;8.584;2022-07-10T00:04:39;101232.91;;;16.75;86.44
24486;BME280;13449;49.374;8.584;2022-07-10T00:07:05;101241.34;;;16.74;86.12
24486;BME280;13449;49.374;8.584;2022-07-10T00:09:32;101243.50;;;16.72;85.90
24486;BME280;13449;49.374;8.584;2022-07-10T00:12:06;101243.50;;;16.72;86.75
24486;BME280;13449;49.374;8.584;2022-07-10T00:14:32;101242.19;;;16.68;87.08
24486;BME280;13449;49.374;8.584;2022-07-10T00:16:59;101242.41;;;16.66;87.54
24486;BME280;13449;49.374;8.584;2022-07-10T00:19:26;101253.59;;;16.65;82.48
24486;BME280;13449;49.374;8.584;2022-07-10T00:21:52;101243.50;;;16.72;85.58
24486;BME280;13449;49.374;8.584;2022-07-10T00:24:21;101250.66;;;16.73;84.48
24486;BME280;13449;49.374;8.584;2022-07-10T00:26:50;101248.16;;;16.78;85.13
24486;BME280;13449;49.374;8.584;2022-07-10T00:29:16;101250.72;;;16.79;82.79
24486;BME280;13449;49.374;8.584;2022-07-10T00:31:43;101249.00;;;16.85;81.02
24486;BME280;13449;49.374;8.584;2022-07-10T00:34:10;101243.94;;;16.95;82.70
24486;BME280;13449;49.374;8.584;2022-07-10T00:36:37;101244.78;;;17.02;84.57
24486;BME280;13449;49.374;8.584;2022-07-10T00:39:03;101242.47;;;16.92;85.97
24486;BME280;13449;49.374;8.584;2022-07-10T00:41:33;101252.00;;;16.90;81.18
24486;BME280;13449;49.374;8.584;2022-07-10T00:44:00;101245.66;;;16.96;83.07
24486;BME280;13449;49.374;8.584;2022-07-10T00:46:28;101246.06;;;17.00;84.09
24486;BME280;13449;49.374;8.584;2022-07-10T00:48:56;101244.59;;;17.04;84.38
24486;BME280;13449;49.374;8.584;2022-07-10T00:51:28;101249.69;;;17.00;83.76
24486;BME280;13449;49.374;8.584;2022-07-10T00:53:56;101245.03;;;16.94;84.53
24486;BME280;13449;49.374;8.584;2022-07-10T00:56:25;101249.25;;;17.03;83.32
24486;BME280;13449;49.374;8.584;2022-07-10T00:58:51;101253.72;;;17.04;81.54
24486;BME280;13449;49.374;8.584;2022-07-10T01:01:18;101252.25;;;17.08;82.25
24486;BME280;13449;49.374;8.584;2022-07-10T01:03:46;101252.88;;;17.10;81.79
24486;BME280;13449;49.374;8.584;2022-07-10T01:06:13;101260.94;;;17.12;81.02
24486;BME280;13449;49.374;8.584;2022-07-10T01:08:41;101256.06;;;17.14;81.53
24486;BME280;13449;49.374;8.584;2022-07-10T01:11:09;101248.63;;;17.14;81.56
24486;BME280;13449;49.374;8.584;2022-07-10T01:13:36;101249.50;;;17.08;80.40
24486;BME280;13449;49.374;8.584;2022-07-10T01:16:03;101256.72;;;17.09;80.53
24486;BME280;13449;49.374;8.584;2022-07-10T01:18:33;101256.69;;;17.03;80.29
24486;BME280;13449;49.374;8.584;2022-07-10T01:21:00;101265.16;;;17.01;80.24
24486;BME280;13449;49.374;8.584;2022-07-10T01:23:29;101256.44;;;16.91;81.45
24486;BME280;13449;49.374;8.584;2022-07-10T01:25:56;101249.03;;;16.91;81.53
24486;BME280;13449;49.374;8.584;2022-07-10T01:28:22;101251.34;;;16.88;80.01
24486;BME280;13449;49.374;8.584;2022-07-10T01:30:49;101254.31;;;16.86;80.75
24486;BME280;13449;49.374;8.584;2022-07-10T01:33:16;101264.50;;;16.86;80.30
24486;BME280;13449;49.374;8.584;2022-07-10T01:35:42;101263.44;;;16.87;79.72
24486;BME280;13449;49.374;8.584;2022-07-10T01:38:09;101265.34;;;16.86;80.95
24486;BME280;13449;49.374;8.584;2022-07-10T01:40:38;101262.97;;;16.83;79.76
24486;BME280;13449;49.374;8.584;2022-07-10T01:43:07;101271.25;;;16.83;79.26
24486;BME280;13449;49.374;8.584;2022-07-10T01:45:36;101273.19;;;16.83;79.80
24486;BME280;13449;49.374;8.584;2022-07-10T01:48:02;101275.72;;;16.84;79.61
24486;BME280;13449;49.374;8.584;2022-07-10T01:50:29;101282.06;;;16.78;80.62
24486;BME280;13449;49.374;8.584;2022-07-10T01:52:55;101281.63;;;16.75;80.25
24486;BME280;13449;49.374;8.584;2022-07-10T01:55:22;101288.00;;;16.75;79.20
24486;BME280;13449;49.374;8.584;2022-07-10T01:57:48;101286.06;;;16.76;78.72
24486;BME280;13449;49.374;8.584;2022-07-10T02:00:15;101279.72;;;16.75;78.61
24486;BME280;13449;49.374;8.584;2022-07-10T02:02:41;101293.94;;;16.79;78.36
24486;BME280;13449;49.374;8.584;2022-07-10T02:05:28;101279.72;;;16.75;77.75
24486;BME280;13449;49.374;8.584;2022-07-10T02:07:54;101288.63;;;16.77;77.68
24486;BME280;13449;49.374;8.584;2022-07-10T02:10:21;101290.53;;;16.77;77.92
24486;BME280;13449;49.374;8.584;2022-07-10T02:12:47;101292.41;;;16.76;77.43
24486;BME280;13449;49.374;8.584;2022-07-10T02:15:14;101296.03;;;16.77;77.75
24486;BME280;13449;49.374;8.584;2022-07-10T02:17:40;101285.88;;;16.77;77.01
24486;BME280;13449;49.374;8.584;2022-07-10T02:20:07;101295.19;;;16.76;76.50
24486;BME280;13449;49.374;8.584;2022-07-10T02:22:36;101303.66;;;16.75;76.36
24486;BME280;13449;49.374;8.584;2022-07-10T02:25:03;101301.34;;;16.78;76.25
24486;BME280;13449;49.374;8.584;2022-07-10T02:27:30;101294.13;;;16.77;75.04
24486;BME280;13449;49.374;8.584;2022-07-10T02:29:56;101307.03;;;16.77;74.24
24486;BME280;13449;49.374;8.584;2022-07-10T02:32:25;101301.34;;;16.78;74.40
24486;BME280;13449;49.374;8.584;2022-07-10T02:34:51;101304.94;;;16.79;74.19
24486;BME280;13449;49.374;8.584;2022-07-10T02:37:18;101305.56;;;16.81;74.68
24486;BME280;13449;49.374;8.584;2022-07-10T02:39:44;101310.03;;;16.82;74.15
24486;BME280;13449;49.374;8.584;2022-07-10T02:42:11;101304.53;;;16.82;73.60
24486;BME280;13449;49.374;8.584;2022-07-10T02:44:37;101309.38;;;16.80;72.99
24486;BME280;13449;49.374;8.584;2022-07-10T02:47:04;101297.31;;;16.81;74.03
24486;BME280;13449;49.374;8.584;2022-07-10T02:49:30;101307.47;;;16.80;74.11
24486;BME280;13449;49.374;8.584;2022-07-10T02:51:57;101297.72;;;16.78;74.36
24486;BME280;13449;49.374;8.584;2022-07-10T02:54:24;101312.38;;;16.78;74.58
24486;BME280;13449;49.374;8.584;2022-07-10T02:56:51;101307.72;;;16.79;74.83
24486;BME280;13449;49.374;8.584;2022-07-10T02:59:22;101300.50;;;16.78;74.44
24486;BME280;13449;49.374;8.584;2022-07-10T03:01:48;101306.00;;;16.78;74.54
24486;BME280;13449;49.374;8.584;2022-07-10T03:04:15;101307.47;;;16.74;74.68
24486;BME280;13449;49.374;8.584;2022-07-10T03:06:41;101308.94;;;16.70;74.56
24486;BME280;13449;49.374;8.584;2022-07-10T03:09:08;101302.56;;;16.69;74.51
24486;BME280;13449;49.374;8.584;2022-07-10T03:11:34;101310.81;;;16.69;74.40
24486;BME280;13449;49.374;8.584;2022-07-10T03:14:03;101312.09;;;16.67;74.51
24486;BME280;13449;49.374;8.584;2022-07-10T03:16:30;101313.81;;;16.68;74.25
24486;BME280;13449;49.374;8.584;2022-07-10T03:18:56;101311.06;;;16.68;74.54
24486;BME280;13449;49.374;8.584;2022-07-10T03:21:23;101313.56;;;16.63;74.58
24486;BME280;13449;49.374;8.584;2022-07-10T03:23:54;101305.72;;;16.60;74.72
24486;BME280;13449;49.374;8.584;2022-07-10T03:26:21;101305.31;;;16.63;74.93
24486;BME280;13449;49.374;8.584;2022-07-10T03:28:47;101306.78;;;16.65;75.05
24486;BME280;13449;49.374;8.584;2022-07-10T03:31:14;101312.94;;;16.61;74.42
24486;BME280;13449;49.374;8.584;2022-07-10T03:33:40;101314.56;;;16.55;73.65
24486;BME280;13449;49.374;8.584;2022-07-10T03:36:09;101321.81;;;16.56;73.93
24486;BME280;13449;49.374;8.584;2022-07-10T03:38:36;101318.78;;;16.51;74.37
24486;BME280;13449;49.374;8.584;2022-07-10T03:41:03;101312.63;;;16.49;73.79
24486;BME280;13449;49.374;8.584;2022-07-10T03:43:29;101323.84;;;16.48;73.60
24486;BME280;13449;49.374;8.584;2022-07-10T03:45:57;101318.94;;;16.43;74.17
24486;BME280;13449;49.374;8.584;2022-07-10T03:48:24;101318.09;;;16.42;73.94
24486;BME280;13449;49.374;8.584;2022-07-10T03:50:51;101313.59;;;16.35;74.92
24486;BME280;13449;49.374;8.584;2022-07-10T03:53:20;101322.94;;;16.34;74.49
24486;BME280;13449;49.374;8.584;2022-07-10T03:55:49;101322.94;;;16.34;73.93
24486;BME280;13449;49.374;8.584;2022-07-10T03:58:15;101318.03;;;16.29;74.65
24486;BME280;13449;49.374;8.584;2022-07-10T04:00:42;101312.97;;;16.33;74.69
24486;BME280;13449;49.374;8.584;2022-07-10T04:03:13;101309.97;;;16.28;75.03
24486;BME280;13449;49.374;8.584;2022-07-10T04:05:40;101315.88;;;16.25;74.88
24486;BME280;13449;49.374;8.584;2022-07-10T04:08:06;101314.38;;;16.22;75.50
24486;BME280;13449;49.374;8.584;2022-07-10T04:10:34;101313.94;;;16.19;75.64
24486;BME280;13449;49.374;8.584;2022-07-10T04:13:03;101313.50;;;16.15;76.05
24486;BME280;13449;49.374;8.584;2022-07-10T04:15:29;101320.47;;;16.11;76.33
24486;BME280;13449;49.374;8.584;2022-07-10T04:17:56;101321.25;;;16.05;76.56
24486;BME280;13449;49.374;8.584;2022-07-10T04:20:23;101320.59;;;16.03;76.24
24486;BME280;13449;49.374;8.584;2022-07-10T04:22:50;101313.16;;;15.97;77.96
24486;BME280;13449;49.374;8.584;2022-07-10T04:25:17;101313.16;;;15.97;76.79
24486;BME280;13449;49.374;8.584;2022-07-10T04:27:44;101314.81;;;15.91;77.28
24486;BME280;13449;49.374;8.584;2022-07-10T04:30:10;101318.41;;;15.92;77.26
24486;BME280;13449;49.374;8.584;2022-07-10T04:32:37;101320.06;;;15.86;76.65
24486;BME280;13449;49.374;8.584;2022-07-10T04:35:03;101326.00;;;15.90;76.64
24486;BME280;13449;49.374;8.584;2022-07-10T04:37:30;101328.97;;;15.88;76.38
24486;BME280;13449;49.374;8.584;2022-07-10T04:39:57;101331.91;;;15.87;76.56
24486;BME280;13449;49.374;8.584;2022-07-10T04:42:24;101325.56;;;15.86;77.02
24486;BME280;13449;49.374;8.584;2022-07-10T04:44:51;101325.97;;;15.83;76.47
24486;BME280;13449;49.374;8.584;2022-07-10T04:47:17;101330.19;;;15.86;76.26
24486;BME280;13449;49.374;8.584;2022-07-10T04:49:44;101338.22;;;15.81;77.09
24486;BME280;13449;49.374;8.584;2022-07-10T04:52:10;101332.91;;;15.79;77.33
24486;BME280;13449;49.374;8.584;2022-07-10T04:54:37;101338.22;;;15.81;76.88
24486;BME280;13449;49.374;8.584;2022-07-10T04:57:04;101338.84;;;15.83;77.23
24486;BME280;13449;49.374;8.584;2022-07-10T04:59:31;101335.69;;;15.86;77.08
24486;BME280;13449;49.374;8.584;2022-07-10T05:02:00;101338.22;;;15.81;77.74
24486;BME280;13449;49.374;8.584;2022-07-10T05:04:29;101342.88;;;15.80;77.52
24486;BME280;13449;49.374;8.584;2022-07-10T05:06:55;101336.91;;;15.77;77.16
24486;BME280;13449;49.374;8.584;2022-07-10T05:09:22;101327.81;;;15.76;76.93
24486;BME280;13449;49.374;8.584;2022-07-10T05:11:48;101341.56;;;15.76;76.36
24486;BME280;13449;49.374;8.584;2022-07-10T05:14:14;101350.94;;;15.82;76.68
24486;BME280;13449;49.374;8.584;2022-07-10T05:16:42;101357.25;;;15.82;76.12
24486;BME280;13449;49.374;8.584;2022-07-10T05:19:09;101361.53;;;15.85;75.76
24486;BME280;13449;49.374;8.584;2022-07-10T05:21:35;101360.72;;;15.91;76.22
24486;BME280;13449;49.374;8.584;2022-07-10T05:24:02;101370.28;;;15.95;76.03
24486;BME280;13449;49.374;8.584;2022-07-10T05:26:28;101366.88;;;15.93;74.46
24486;BME280;13449;49.374;8.584;2022-07-10T05:28:55;101362.44;;;15.92;74.40
24486;BME280;13449;49.374;8.584;2022-07-10T05:31:21;101361.63;;;15.98;74.57
24486;BME280;13449;49.374;8.584;2022-07-10T05:33:50;101371.75;;;15.98;73.80
24486;BME280;13449;49.374;8.584;2022-07-10T05:36:19;101374.59;;;16.04;74.47
24486;BME280;13449;49.374;8.584;2022-07-10T05:38:45;101372.28;;;16.08;74.36
24486;BME280;13449;49.374;8.584;2022-07-10T05:41:12;101382.84;;;16.04;73.47
24486;BME280;13449;49.374;8.584;2022-07-10T05:43:42;101391.94;;;16.05;72.85
24486;BME280;13449;49.374;8.584;2022-07-10T05:46:10;101388.59;;;16.09;72.41
24486;BME280;13449;49.374;8.584;2022-07-10T05:48:37;101388.88;;;16.21;72.51
24486;BME280;13449;49.374;8.584;2022-07-10T05:51:05;101388.03;;;16.20;71.85
24486;BME280;13449;49.374;8.584;2022-07-10T05:53:51;101390.56;;;16.50;71.39
24486;BME280;13449;49.374;8.584;2022-07-10T05:56:18;101401.13;;;16.74;70.89
24486;BME280;13449;49.374;8.584;2022-07-10T05:58:45;101412.81;;;16.82;69.07
24486;BME280;13449;49.374;8.584;2022-07-10T06:01:11;101409.63;;;16.79;69.18
24486;BME280;13449;49.374;8.584;2022-07-10T06:03:42;101410.88;;;16.76;69.11
24486;BME280;13449;49.374;8.584;2022-07-10T06:06:09;101409.38;;;16.74;69.26
24486;BME280;13449;49.374;8.584;2022-07-10T06:08:36;101408.31;;;16.68;69.28
24486;BME280;13449;49.374;8.584;2022-07-10T06:11:03;101413.44;;;16.78;68.46
24486;BME280;13449;49.374;8.584;2022-07-10T06:13:30;101420.53;;;17.00;68.45
24486;BME280;13449;49.374;8.584;2022-07-10T06:15:56;101426.06;;;17.07;66.34
24486;BME280;13449;49.374;8.584;2022-07-10T06:18:23;101423.91;;;16.96;65.76
24486;BME280;13449;49.374;8.584;2022-07-10T06:20:49;101433.03;;;17.03;65.21
24486;BME280;13449;49.374;8.584;2022-07-10T06:23:16;101433.00;;;16.96;65.42
24486;BME280;13449;49.374;8.584;2022-07-10T06:25:44;101422.66;;;16.98;65.80
24486;BME280;13449;49.374;8.584;2022-07-10T06:28:10;101414.72;;;16.82;66.29
24486;BME280;13449;49.374;8.584;2022-07-10T06:30:37;101419.81;;;16.85;66.42
24486;BME280;13449;49.374;8.584;2022-07-10T06:33:03;101423.59;;;16.77;66.21
24486;BME280;13449;49.374;8.584;2022-07-10T06:35:32;101425.50;;;16.77;66.10
24486;BME280;13449;49.374;8.584;2022-07-10T06:38:01;101433.13;;;16.75;65.55
24486;BME280;13449;49.374;8.584;2022-07-10T06:40:35;101419.38;;;16.81;66.30
24486;BME280;13449;49.374;8.584;2022-07-10T06:43:02;101435.97;;;16.95;64.64
24486;BME280;13449;49.374;8.584;2022-07-10T06:45:30;101449.06;;;17.27;64.17
24486;BME280;13449;49.374;8.584;2022-07-10T06:47:56;101440.00;;;17.39;63.16
24486;BME280;13449;49.374;8.584;2022-07-10T06:50:25;101435.34;;;17.53;63.36
24486;BME280;13449;49.374;8.584;2022-07-10T06:52:55;101430.75;;;17.60;63.31
24486;BME280;13449;49.374;8.584;2022-07-10T06:55:28;101449.66;;;17.83;62.34
24486;BME280;13449;49.374;8.584;2022-07-10T06:57:55;101454.56;;;17.88;61.83
24486;BME280;13449;49.374;8.584;2022-07-10T07:00:22;101443.94;;;18.04;61.76
24486;BME280;13449;49.374;8.584;2022-07-10T07:02:49;101451.38;;;18.23;60.74
24486;BME280;13449;49.374;8.584;2022-07-10T07:05:16;101488.78;;;18.06;58.89
24486;BME280;13449;49.374;8.584;2022-07-10T07:07:42;101467.03;;;17.70;59.61
24486;BME280;13449;49.374;8.584;2022-07-10T07:10:10;101462.34;;;17.58;60.25
24486;BME280;13449;49.374;8.584;2022-07-10T07:12:37;101473.22;;;17.92;59.31
24486;BME280;13449;49.374;8.584;2022-07-10T07:15:04;101503.00;;;18.16;56.81
24486;BME280;13449;49.374;8.584;2022-07-10T07:17:30;101469.41;;;18.00;59.51
24486;BME280;13449;49.374;8.584;2022-07-10T07:20:00;101490.25;;;17.96;57.26
24486;BME280;13449;49.374;8.584;2022-07-10T07:22:46;101508.31;;;18.31;55.81
24486;BME280;13449;49.374;8.584;2022-07-10T07:25:31;101522.56;;;18.48;55.09
24486;BME280;13449;49.374;8.584;2022-07-10T07:27:57;101528.09;;;18.67;54.85
24486;BME280;13449;49.374;8.584;2022-07-10T07:30:24;101549.31;;;18.34;53.75
24486;BME280;13449;49.374;8.584;2022-07-10T07:32:50;101529.34;;;18.12;54.69
24486;BME280;13449;49.374;8.584;2022-07-10T07:35:17;101511.47;;;18.02;55.50
24486;BME280;13449;49.374;8.584;2022-07-10T07:37:46;101518.59;;;17.63;55.25
24486;BME280;13449;49.374;8.584;2022-07-10T07:40:15;101503.34;;;17.74;55.82
24486;BME280;13449;49.374;8.584;2022-07-10T07:42:42;101498.69;;;17.81;55.71
24486;BME280;13449;49.374;8.584;2022-07-10T07:45:11;101499.94;;;17.72;56.31
24486;BME280;13449;49.374;8.584;2022-07-10T07:47:45;101520.28;;;17.64;54.75
24486;BME280;13449;49.374;8.584;2022-07-10T07:50:15;101515.44;;;17.73;55.29
24486;BME280;13449;49.374;8.584;2022-07-10T07:52:45;101533.06;;;17.72;54.40
24486;BME280;13449;49.374;8.584;2022-07-10T07:55:21;101528.84;;;17.76;54.58
24486;BME280;13449;49.374;8.584;2022-07-10T07:57:51;101544.47;;;17.62;54.70
24486;BME280;13449;49.374;8.584;2022-07-10T08:00:19;101544.53;;;17.75;53.12
24486;BME280;13449;49.374;8.584;2022-07-10T08:02:52;101556.94;;;17.99;52.86
24486;BME280;13449;49.374;8.584;2022-07-10T08:05:20;101519.59;;;18.29;54.61
24486;BME280;13449;49.374;8.584;2022-07-10T08:07:53;101550.38;;;18.20;53.29
24486;BME280;13449;49.374;8.584;2022-07-10T08:10:24;101571.00;;;18.30;50.59
24486;BME280;13449;49.374;8.584;2022-07-10T08:12:52;101557.66;;;18.73;50.98
24486;BME280;13449;49.374;8.584;2022-07-10T08:15:23;101541.19;;;19.24;52.07
24486;BME280;13449;49.374;8.584;2022-07-10T08:17:54;101589.28;;;19.30;49.83
24486;BME280;13449;49.374;8.584;2022-07-10T08:20:23;101590.16;;;19.11;49.59
24486;BME280;13449;49.374;8.584;2022-07-10T08:22:52;101593.16;;;18.96;49.88
24486;BME280;13449;49.374;8.584;2022-07-10T08:25:26;101571.50;;;18.73;50.58
24486;BME280;13449;49.374;8.584;2022-07-10T08:27:52;101568.50;;;18.62;49.43
24486;BME280;13449;49.374;8.584;2022-07-10T08:30:19;101565.09;;;18.73;50.36
24486;BME280;13449;49.374;8.584;2022-07-10T08:32:45;101527.81;;;19.08;50.64
24486;BME280;13449;49.374;8.584;2022-07-10T08:35:12;101584.63;;;18.98;48.41
24486;BME280;13449;49.374;8.584;2022-07-10T08:37:43;101598.50;;;18.78;47.93
24486;BME280;13449;49.374;8.584;2022-07-10T08:40:13;101566.75;;;19.13;48.91
24486;BME280;13449;49.374;8.584;2022-07-10T08:42:43;101577.75;;;19.46;48.57
24486;BME280;13449;49.374;8.584;2022-07-10T08:45:14;101544.97;;;19.50;51.35
24486;BME280;13449;49.374;8.584;2022-07-10T08:47:41;101598.53;;;19.68;46.57
24486;BME280;13449;49.374;8.584;2022-07-10T08:50:22;101596.50;;;19.95;46.85
24486;BME280;13449;49.374;8.584;2022-07-10T08:55:25;101628.38;;;19.53;46.67
24486;BME280;13449;49.374;8.584;2022-07-10T08:57:53;101630.44;;;19.84;45.22
24486;BME280;13449;49.374;8.584;2022-07-10T09:00:22;101629.53;;;19.97;45.17
24486;BME280;13449;49.374;8.584;2022-07-10T09:02:48;101625.31;;;20.39;45.47
24486;BME280;13449;49.374;8.584;2022-07-10T09:05:15;101658.72;;;20.44;43.01
24486;BME280;13449;49.374;8.584;2022-07-10T09:07:41;101653.16;;;20.44;43.72
24486;BME280;13449;49.374;8.584;2022-07-10T09:10:10;101659.34;;;20.46;43.08
24486;BME280;13449;49.374;8.584;2022-07-10T09:12:52;101646.66;;;20.63;45.29
24486;BME280;13449;49.374;8.584;2022-07-10T09:15:21;101664.38;;;20.62;43.67
24486;BME280;13449;49.374;8.584;2022-07-10T09:17:55;101661.03;;;20.53;43.39
24486;BME280;13449;49.374;8.584;2022-07-10T09:20:30;101659.13;;;20.79;43.10
24486;BME280;13449;49.374;8.584;2022-07-10T09:23:16;101650.94;;;20.90;43.92
24486;BME280;13449;49.374;8.584;2022-07-10T09:25:45;101652.44;;;20.61;43.97
24486;BME280;13449;49.374;8.584;2022-07-10T09:28:12;101654.75;;;20.26;43.82
24486;BME280;13449;49.374;8.584;2022-07-10T09:30:39;101643.63;;;19.89;44.28
24486;BME280;13449;49.374;8.584;2022-07-10T09:33:23;101647.16;;;20.02;43.23
24486;BME280;13449;49.374;8.584;2022-07-10T09:43:51;101651.41;;;20.56;43.37
24486;BME280;13449;49.374;8.584;2022-07-10T09:46:21;101621.56;;;20.83;44.37
24486;BME280;13449;49.374;8.584;2022-07-10T09:49:04;101614.84;;;21.22;44.97
24486;BME280;13449;49.374;8.584;2022-07-10T09:51:54;101665.50;;;21.10;41.53
24486;BME280;13449;49.374;8.584;2022-07-10T09:54:21;101694.31;;;20.78;40.82
24486;BME280;13449;49.374;8.584;2022-07-10T09:56:49;101658.13;;;20.98;40.72
24486;BME280;13449;49.374;8.584;2022-07-10T09:59:20;101657.28;;;20.66;41.99
24486;BME280;13449;49.374;8.584;2022-07-10T10:01:51;101650.66;;;20.42;42.45
24486;BME280;13449;49.374;8.584;2022-07-10T10:04:22;101645.94;;;20.43;42.62
24486;BME280;13449;49.374;8.584;2022-07-10T10:07:01;101636.41;;;20.32;42.79
24486;BME280;13449;49.374;8.584;2022-07-10T10:09:54;101646.38;;;20.71;42.48
24486;BME280;13449;49.374;8.584;2022-07-10T10:12:45;101666.03;;;20.69;41.54
24486;BME280;13449;49.374;8.584;2022-07-10T10:15:14;101665.31;;;20.81;41.16
24486;BME280;13449;49.374;8.584;2022-07-10T10:17:43;101623.22;;;21.15;43.45
24486;BME280;13449;49.374;8.584;2022-07-10T10:20:14;101669.34;;;21.09;39.55
24486;BME280;13449;49.374;8.584;2022-07-10T10:23:21;101641.31;;;21.42;41.77
24486;BME280;13449;49.374;8.584;2022-07-10T10:25:52;101657.69;;;21.68;40.34
24486;BME280;13449;49.374;8.584;2022-07-10T10:28:21;101643.50;;;21.77;41.55
24486;BME280;13449;49.374;8.584;2022-07-10T10:30:51;101653.06;;;21.62;40.79
24486;BME280;13449;49.374;8.584;2022-07-10T10:36:09;101652.63;;;21.41;40.47
24486;BME280;13449;49.374;8.584;2022-07-10T10:41:22;101592.75;;;21.51;43.37
24486;BME280;13449;49.374;8.584;2022-07-10T10:46:58;101621.56;;;21.32;43.31
24486;BME280;13449;49.374;8.584;2022-07-10T10:49:54;101645.53;;;20.70;40.66
24486;BME280;13449;49.374;8.584;2022-07-10T10:52:23;101635.47;;;21.01;41.34
24486;BME280;13449;49.374;8.584;2022-07-10T11:00:04;101645.22;;;21.35;40.33
24486;BME280;13449;49.374;8.584;2022-07-10T11:02:38;101644.50;;;21.64;40.72
24486;BME280;13449;49.374;8.584;2022-07-10T11:10:31;101625.38;;;21.74;41.19
24486;BME280;13449;49.374;8.584;2022-07-10T11:15:28;101657.94;;;21.85;39.04
24486;BME280;13449;49.374;8.584;2022-07-10T11:18:06;101670.72;;;21.68;40.07
24486;BME280;13449;49.374;8.584;2022-07-10T11:26:06;101672.72;;;21.61;38.89
24486;BME280;13449;49.374;8.584;2022-07-10T11:31:19;101673.22;;;21.94;37.72
24486;BME280;13449;49.374;8.584;2022-07-10T11:33:53;101672.75;;;21.97;38.41
24486;BME280;13449;49.374;8.584;2022-07-10T11:36:25;101665.81;;;22.06;38.05
24486;BME280;13449;49.374;8.584;2022-07-10T11:39:03;101644.56;;;22.12;39.00
24486;BME280;13449;49.374;8.584;2022-07-10T11:41:31;101653.22;;;21.86;38.32
24486;BME280;13449;49.374;8.584;2022-07-10T11:43:59;101660.94;;;21.84;39.13
24486;BME280;13449;49.374;8.584;2022-07-10T11:46:29;101650.13;;;22.12;38.53
24486;BME280;13449;49.374;8.584;2022-07-10T11:48:56;101647.94;;;22.32;37.63
24486;BME280;13449;49.374;8.584;2022-07-10T11:51:29;101629.13;;;22.34;39.78
24486;BME280;13449;49.374;8.584;2022-07-10T11:54:00;101624.84;;;22.32;38.10
24486;BME280;13449;49.374;8.584;2022-07-10T11:56:32;101634.19;;;22.07;38.83
24486;BME280;13449;49.374;8.584;2022-07-10T11:59:01;101618.28;;;21.78;38.45
24486;BME280;13449;49.374;8.584;2022-07-10T12:01:30;101620.06;;;21.73;38.20
24486;BME280;13449;49.374;8.584;2022-07-10T12:04:02;101613.66;;;21.72;38.30
24486;BME280;13449;49.374;8.584;2022-07-10T12:06:32;101609.78;;;21.73;38.70
24486;BME280;13449;49.374;8.584;2022-07-10T12:09:03;101590.16;;;21.93;40.29
24486;BME280;13449;49.374;8.584;2022-07-10T12:11:31;101598.38;;;21.81;38.08
24486;BME280;13449;49.374;8.584;2022-07-10T12:14:13;101576.56;;;21.66;39.88
24486;BME280;13449;49.374;8.584;2022-07-10T12:16:42;101564.06;;;21.57;40.30
24486;BME280;13449;49.374;8.584;2022-07-10T12:19:13;101562.34;;;21.75;38.73
24486;BME280;13449;49.374;8.584;2022-07-10T12:21:42;101570.91;;;21.91;38.67
24486;BME280;13449;49.374;8.584;2022-07-10T12:24:12;101575.97;;;22.12;40.04
24486;BME280;13449;49.374;8.584;2022-07-10T12:26:45;101575.16;;;22.24;39.06
24486;BME280;13449;49.374;8.584;2022-07-10T12:29:25;101570.88;;;22.09;38.64
24486;BME280;13449;49.374;8.584;2022-07-10T12:31:53;101574.13;;;22.06;38.78
24486;BME280;13449;49.374;8.584;2022-07-10T12:34:37;101572.91;;;21.84;39.30
24486;BME280;13449;49.374;8.584;2022-07-10T12:37:07;101553.56;;;22.26;39.45
24486;BME280;13449;49.374;8.584;2022-07-10T12:39:37;101572.09;;;22.43;38.28
24486;BME280;13449;49.374;8.584;2022-07-10T12:42:07;101569.16;;;22.27;39.00
24486;BME280;13449;49.374;8.584;2022-07-10T12:44:42;101581.88;;;22.16;38.70
24486;BME280;13449;49.374;8.584;2022-07-10T12:47:13;101580.00;;;22.28;38.93
24486;BME280;13449;49.374;8.584;2022-07-10T12:50:14;101566.06;;;22.16;38.71
24486;BME280;13449;49.374;8.584;2022-07-10T12:52:36;101550.69;;;22.02;40.17
24486;BME280;13449;49.374;8.584;2022-07-10T12:55:14;101554.16;;;22.28;39.22
24486;BME280;13449;49.374;8.584;2022-07-10T12:58:03;101567.03;;;22.52;38.34
24486;BME280;13449;49.374;8.584;2022-07-10T13:00:32;101562.84;;;22.31;39.12
24486;BME280;13449;49.374;8.584;2022-07-10T13:03:08;101531.13;;;22.62;40.64
24486;BME280;13449;49.374;8.584;2022-07-10T13:05:42;101559.50;;;22.41;39.37
24486;BME280;13449;49.374;8.584;2022-07-10T13:08:16;101546.47;;;22.41;39.39
24486;BME280;13449;49.374;8.584;2022-07-10T13:10:51;101552.03;;;22.41;38.43
24486;BME280;13449;49.374;8.584;2022-07-10T13:13:20;101541.50;;;22.43;38.55
24486;BME280;13449;49.374;8.584;2022-07-10T13:15:50;101547.88;;;22.32;39.22
24486;BME280;13449;49.374;8.584;2022-07-10T13:18:22;101538.56;;;22.27;39.12
24486;BME280;13449;49.374;8.584;2022-07-10T13:20:49;101540.84;;;22.18;39.66
24486;BME280;13449;49.374;8.584;2022-07-10T13:23:20;101542.66;;;21.94;39.21
24486;BME280;13449;49.374;8.584;2022-07-10T13:25:52;101531.22;;;22.02;39.75
24486;BME280;13449;49.374;8.584;2022-07-10T13:28:18;101540.63;;;21.53;39.37
24486;BME280;13449;49.374;8.584;2022-07-10T13:30:46;101518.53;;;21.77;40.84
24486;BME280;13449;49.374;8.584;2022-07-10T13:33:12;101520.16;;;21.84;40.35
24486;BME280;13449;49.374;8.584;2022-07-10T13:35:39;101519.06;;;21.85;39.63
24486;BME280;13449;49.374;8.584;2022-07-10T13:38:07;101498.84;;;21.96;41.18
24486;BME280;13449;49.374;8.584;2022-07-10T13:40:41;101473.59;;;21.98;42.24
24486;BME280;13449;49.374;8.584;2022-07-10T13:43:09;101484.81;;;21.91;40.64